Time;durP1;ratioP1;P1;durP2;ratioP2;P2;SDS_P1;SDS_P2;PMS_P1;PMS_P2;Temp;Humidity;BMP_temperature;BMP_pressure;BME280_temperature;BME280_humidity;BME280_pressure;Samples;Min_cycle;Max_cycle;Signal;HPM_P1;HPM_P2
2021/12/15 00:00:11;;;;;;;12.40;8.07;;;10.40;99.90;;;;;;5054883;28;20421;-79
2021/12/15 00:02:38;;;;;;;12.17;8.43;;;10.40;99.90;;;;;;5054884;28;20446;-78
2021/12/15 00:05:06;;;;;;;13.23;7.20;;;10.30;99.90;;;;;;5055148;28;20929;-78
2021/12/15 00:07:33;;;;;;;11.07;8.17;;;10.30;99.90;;;;;;5054552;28;20430;-79
2021/12/15 00:09:59;;;;;;;10.60;7.03;;;10.30;99.90;;;;;;5054392;28;20467;-78
2021/12/15 00:12:25;;;;;;;11.70;7.80;;;10.40;99.90;;;;;;5055078;28;20449;-77
2021/12/15 00:14:52;;;;;;;10.00;7.70;;;10.40;99.90;;;;;;5054687;28;20660;-79
2021/12/15 00:17:18;;;;;;;10.07;7.00;;;10.40;99.90;;;;;;5054103;28;20525;-78
2021/12/15 00:19:45;;;;;;;10.20;7.80;;;10.40;99.90;;;;;;5055006;28;20507;-78
2021/12/15 00:22:11;;;;;;;15.73;8.17;;;10.40;99.90;;;;;;5054600;28;20496;-78
2021/12/15 00:24:37;;;;;;;12.17;8.13;;;10.40;99.90;;;;;;5054830;28;20422;-78
2021/12/15 00:27:04;;;;;;;14.50;7.80;;;10.40;99.90;;;;;;5054537;28;20461;-78
2021/12/15 00:29:29;;;;;;;13.93;10.13;;;10.40;99.90;;;;;;5054638;28;20423;-78
2021/12/15 00:31:57;;;;;;;9.80;7.07;;;10.40;99.90;;;;;;5054475;28;20461;-78
2021/12/15 00:34:23;;;;;;;9.97;5.90;;;10.40;99.90;;;;;;5054940;28;20188;-78
2021/12/15 00:36:49;;;;;;;10.03;6.30;;;10.40;99.90;;;;;;5055553;28;20501;-78
2021/12/15 00:39:20;;;;;;;12.17;6.70;;;10.30;99.90;;;;;;5054866;28;20418;-78
2021/12/15 00:41:46;;;;;;;12.23;6.27;;;10.30;99.90;;;;;;5054765;28;20615;-79
2021/12/15 00:44:12;;;;;;;9.73;5.33;;;10.30;99.90;;;;;;5053961;28;20524;-78
2021/12/15 00:46:39;;;;;;;10.50;5.47;;;10.30;99.90;;;;;;5054754;28;20908;-78
2021/12/15 00:49:06;;;;;;;9.77;6.13;;;10.40;99.90;;;;;;5053983;28;20450;-79
2021/12/15 00:51:33;;;;;;;11.97;6.03;;;10.40;99.90;;;;;;5055146;28;20838;-78
2021/12/15 00:53:59;;;;;;;11.83;6.20;;;10.40;99.90;;;;;;5054789;28;20426;-78
2021/12/15 00:56:25;;;;;;;8.83;6.23;;;10.40;99.90;;;;;;5055020;28;20457;-78
2021/12/15 00:58:51;;;;;;;9.80;5.70;;;10.30;99.90;;;;;;5054394;28;20410;-78
2021/12/15 01:01:17;;;;;;;10.70;6.73;;;10.40;99.90;;;;;;5054591;28;20427;-78
2021/12/15 01:03:43;;;;;;;9.13;6.60;;;10.40;99.90;;;;;;5054276;28;20183;-78
2021/12/15 01:06:11;;;;;;;8.83;6.70;;;10.40;99.90;;;;;;5054351;28;20423;-78
2021/12/15 01:08:42;;;;;;;9.53;5.60;;;10.50;99.90;;;;;;5054168;28;20426;-78
2021/12/15 01:11:26;;;;;;;10.30;6.27;;;10.50;99.90;;;;;;5054087;28;20410;-79
2021/12/15 01:22:18;;;;;;;7.17;5.33;;;10.40;99.90;;;;;;5056916;28;20434;-78
2021/12/15 01:24:44;;;;;;;7.97;4.27;;;10.40;99.90;;;;;;5054485;28;20457;-78
2021/12/15 01:27:10;;;;;;;8.07;3.97;;;10.40;99.90;;;;;;5054535;28;20438;-78
2021/12/15 01:29:36;;;;;;;6.60;3.70;;;10.50;99.90;;;;;;5053801;28;20802;-79
2021/12/15 01:32:02;;;;;;;7.70;3.87;;;10.50;99.90;;;;;;5054116;28;20543;-79
2021/12/15 01:34:28;;;;;;;6.03;3.70;;;10.50;99.90;;;;;;5054564;28;20422;-79
2021/12/15 01:36:54;;;;;;;7.00;3.70;;;10.50;99.90;;;;;;5054486;28;20992;-78
2021/12/15 01:39:20;;;;;;;7.57;3.50;;;10.50;99.90;;;;;;5053870;28;20418;-78
2021/12/15 01:41:46;;;;;;;7.43;4.23;;;10.50;99.90;;;;;;5053646;28;20536;-78
2021/12/15 01:46:55;;;;;;;6.87;3.90;;;10.50;99.90;;;;;;5055434;28;20171;-78
2021/12/15 01:49:50;;;;;;;6.97;4.20;;;10.60;99.90;;;;;;5053357;28;20179;-78
2021/12/15 01:52:27;;;;;;;7.80;4.00;;;10.70;99.90;;;;;;5052680;28;20441;-78
2021/12/15 01:54:59;;;;;;;5.30;3.60;;;10.70;99.90;;;;;;5054241;28;20424;-78
2021/12/15 01:57:27;;;;;;;6.30;3.70;;;10.80;99.90;;;;;;5053596;28;20527;-78
2021/12/15 01:59:55;;;;;;;6.03;4.10;;;10.80;99.90;;;;;;5053696;28;20493;-78
2021/12/15 02:02:22;;;;;;;5.40;3.37;;;10.90;99.90;;;;;;5053787;28;20439;-78
2021/12/15 02:04:49;;;;;;;8.10;3.50;;;10.90;99.90;;;;;;5053882;28;20443;-77
2021/12/15 02:07:18;;;;;;;4.30;3.00;;;10.90;99.90;;;;;;5054204;28;20425;-79
2021/12/15 02:12:22;;;;;;;4.60;3.13;;;11.00;99.90;;;;;;5054913;28;20436;-79
2021/12/15 02:14:49;;;;;;;5.50;3.20;;;11.00;99.90;;;;;;5053981;28;20421;-79
2021/12/15 02:17:15;;;;;;;4.77;3.30;;;11.00;99.90;;;;;;5053355;28;20497;-79
2021/12/15 02:19:42;;;;;;;6.00;2.93;;;11.00;99.90;;;;;;5054266;28;20414;-79
2021/12/15 02:22:07;;;;;;;5.47;3.30;;;10.90;99.90;;;;;;5053536;28;20442;-78
2021/12/15 02:24:36;;;;;;;5.47;3.70;;;10.90;99.90;;;;;;5053388;28;20420;-79
2021/12/15 02:27:03;;;;;;;6.33;4.33;;;10.90;99.90;;;;;;5053376;28;20567;-79
2021/12/15 02:29:34;;;;;;;6.10;3.60;;;10.90;99.90;;;;;;5054045;28;20418;-79
2021/12/15 02:32:24;;;;;;;5.20;3.60;;;10.90;99.90;;;;;;5053660;28;20813;-79
2021/12/15 02:37:34;;;;;;;6.37;3.77;;;10.80;99.90;;;;;;5055201;28;20453;-78
2021/12/15 02:40:05;;;;;;;6.27;3.80;;;10.70;99.90;;;;;;5055571;28;20795;-79
2021/12/15 02:42:35;;;;;;;6.30;4.10;;;10.70;99.90;;;;;;5057283;28;20621;-78
2021/12/15 02:45:02;;;;;;;7.60;4.03;;;10.60;99.90;;;;;;5057332;28;20426;-79
2021/12/15 02:47:30;;;;;;;4.70;3.03;;;10.60;99.90;;;;;;5057008;28;20422;-79
2021/12/15 02:49:58;;;;;;;5.70;3.30;;;10.60;99.90;;;;;;5057465;28;20430;-78
2021/12/15 02:52:24;;;;;;;6.27;2.90;;;10.50;99.90;;;;;;5056784;28;20438;-79
2021/12/15 02:54:50;;;;;;;4.80;2.77;;;10.50;99.90;;;;;;5057483;28;20422;-79
2021/12/15 02:57:17;;;;;;;5.07;3.20;;;10.50;99.90;;;;;;5057211;28;20828;-79
2021/12/15 03:16:00;;;;;;;4.43;2.70;;;10.40;99.90;;;;;;5058196;28;20453;-78
2021/12/15 03:18:29;;;;;;;4.37;3.00;;;10.40;99.90;;;;;;5056257;28;20453;-79
2021/12/15 03:21:14;;;;;;;4.57;2.83;;;10.40;99.90;;;;;;5056468;28;20489;-78
2021/12/15 03:23:50;;;;;;;6.40;3.30;;;10.50;99.90;;;;;;5057239;28;20521;-79
2021/12/15 03:26:30;;;;;;;5.20;3.03;;;10.50;99.90;;;;;;5057241;28;20492;-79
2021/12/15 03:39:21;;;;;;;5.17;3.10;;;10.30;99.90;;;;;;5058298;28;20521;-78
2021/12/15 03:41:55;;;;;;;5.67;3.33;;;10.30;99.90;;;;;;5056961;28;20798;-79
2021/12/15 03:44:21;;;;;;;6.30;3.47;;;10.30;99.90;;;;;;5078142;22;20909;-82
2021/12/15 03:46:46;;;;;;;6.40;3.30;;;10.20;99.90;;;;;;5028021;28;20538;-82
2021/12/15 03:49:12;;;;;;;4.33;2.87;;;10.10;99.90;;;;;;5030447;28;20196;-82
2021/12/15 03:51:38;;;;;;;5.30;3.43;;;10.00;99.90;;;;;;5024230;28;20673;-82
2021/12/15 03:54:05;;;;;;;4.80;3.37;;;10.00;99.90;;;;;;5033646;28;20176;-82
2021/12/15 03:56:31;;;;;;;6.17;3.40;;;9.90;99.90;;;;;;5033699;28;20619;-82
2021/12/15 03:58:57;;;;;;;5.83;3.67;;;9.90;99.90;;;;;;5033772;28;21009;-82
2021/12/15 04:01:24;;;;;;;4.20;3.10;;;9.90;99.90;;;;;;5020379;28;20818;-82
2021/12/15 04:03:52;;;;;;;7.73;3.43;;;9.80;99.90;;;;;;5033541;28;20422;-83
2021/12/15 04:06:27;;;;;;;9.83;4.20;;;9.80;99.90;;;;;;5033301;28;20446;-82
2021/12/15 04:08:54;;;;;;;6.63;4.03;;;9.80;99.90;;;;;;5015518;28;20419;-82
2021/12/15 04:11:22;;;;;;;7.73;4.07;;;9.80;99.90;;;;;;5041854;28;20472;-83
2021/12/15 04:13:49;;;;;;;9.40;3.70;;;9.80;99.90;;;;;;5032726;28;20427;-83
2021/12/15 04:16:40;;;;;;;7.20;3.70;;;9.80;99.90;;;;;;5013448;28;20459;-82
2021/12/15 04:19:10;;;;;;;5.43;3.50;;;9.80;99.90;;;;;;5012000;28;20426;-82
2021/12/15 04:21:37;;;;;;;6.00;3.70;;;9.80;99.90;;;;;;5028688;28;20777;-82
2021/12/15 04:24:04;;;;;;;9.23;4.17;;;9.80;99.90;;;;;;5028519;28;20427;-82
2021/12/15 04:26:29;;;;;;;6.03;3.47;;;9.70;99.90;;;;;;5013095;28;20933;-82
2021/12/15 04:28:55;;;;;;;6.40;3.40;;;9.70;99.90;;;;;;5013155;28;20427;-82
2021/12/15 04:31:24;;;;;;;5.50;3.50;;;9.80;99.90;;;;;;5011771;28;20204;-83
2021/12/15 04:33:57;;;;;;;5.10;3.23;;;9.80;99.90;;;;;;5013146;28;20192;-83
2021/12/15 04:36:26;;;;;;;5.80;3.50;;;9.90;99.90;;;;;;5027333;28;20953;-82
2021/12/15 04:38:53;;;;;;;7.07;3.83;;;9.80;99.90;;;;;;5031468;28;20430;-84
2021/12/15 04:41:20;;;;;;;7.00;4.07;;;9.80;99.90;;;;;;5031285;28;20784;-82
2021/12/15 04:43:56;;;;;;;5.30;3.73;;;9.80;99.90;;;;;;5032667;28;20418;-82
2021/12/15 04:46:28;;;;;;;5.23;3.70;;;9.80;99.90;;;;;;5032694;28;21012;-82
2021/12/15 04:48:54;;;;;;;7.80;4.23;;;9.80;99.90;;;;;;5032424;28;20801;-83
2021/12/15 04:51:21;;;;;;;5.87;3.60;;;9.80;99.90;;;;;;5031032;28;20481;-83
2021/12/15 04:53:48;;;;;;;7.63;4.47;;;9.80;99.90;;;;;;5032653;28;20418;-82
2021/12/15 04:56:15;;;;;;;6.70;4.57;;;9.80;99.90;;;;;;5032466;28;20458;-82
2021/12/15 04:58:40;;;;;;;5.80;3.87;;;9.80;99.90;;;;;;5032473;28;20419;-82
2021/12/15 05:01:09;;;;;;;7.67;4.87;;;9.70;99.90;;;;;;5032090;28;20446;-83
2021/12/15 05:03:35;;;;;;;8.43;4.83;;;9.70;99.90;;;;;;5030863;28;20173;-83
2021/12/15 05:06:01;;;;;;;6.77;4.40;;;9.80;99.90;;;;;;5032261;28;20472;-82
2021/12/15 05:08:26;;;;;;;7.37;5.07;;;9.80;99.90;;;;;;5032480;28;20458;-82
2021/12/15 05:10:55;;;;;;;7.50;4.80;;;9.90;99.90;;;;;;5030796;28;20188;-83
2021/12/15 05:13:21;;;;;;;8.20;4.30;;;10.00;99.90;;;;;;5032496;28;20279;-83
2021/12/15 05:15:47;;;;;;;7.20;4.53;;;10.00;99.90;;;;;;5030775;28;20442;-83
2021/12/15 05:18:13;;;;;;;6.13;3.90;;;10.00;99.90;;;;;;5032232;28;20788;-82
2021/12/15 05:20:45;;;;;;;8.00;4.57;;;10.10;99.90;;;;;;5032122;28;20183;-83
2021/12/15 05:23:13;;;;;;;7.03;4.10;;;10.10;99.90;;;;;;5032143;28;20408;-82
2021/12/15 05:25:39;;;;;;;6.77;3.77;;;10.10;99.90;;;;;;5030845;28;20462;-82
2021/12/15 05:28:04;;;;;;;6.93;4.60;;;10.20;99.90;;;;;;5030849;28;20422;-83
2021/12/15 05:30:30;;;;;;;8.93;4.23;;;10.20;99.90;;;;;;5030738;28;20180;-83
2021/12/15 05:32:56;;;;;;;6.60;4.30;;;10.10;99.90;;;;;;5030632;28;20183;-82
2021/12/15 05:35:23;;;;;;;5.97;3.73;;;10.20;99.90;;;;;;5030674;28;20200;-83
2021/12/15 05:37:53;;;;;;;7.00;4.13;;;10.10;99.90;;;;;;5039591;28;20219;-84
2021/12/15 05:40:19;;;;;;;9.70;5.53;;;10.10;99.90;;;;;;5039441;28;20786;-84
2021/12/15 05:42:45;;;;;;;8.97;5.00;;;10.10;99.90;;;;;;5039385;28;20442;-84
2021/12/15 05:45:12;;;;;;;6.70;4.17;;;10.10;99.90;;;;;;5037462;28;20481;-84
2021/12/15 05:47:39;;;;;;;8.20;4.20;;;10.10;99.90;;;;;;5039830;28;20514;-85
2021/12/15 05:50:09;;;;;;;8.17;4.50;;;10.10;99.90;;;;;;5036874;28;20513;-85
2021/12/15 05:52:35;;;;;;;6.70;4.20;;;10.10;99.90;;;;;;5038952;28;20421;-84
2021/12/15 05:55:01;;;;;;;5.73;3.90;;;10.00;99.90;;;;;;5037222;28;20438;-84
2021/12/15 05:57:26;;;;;;;7.27;4.47;;;10.00;99.90;;;;;;5038613;28;20611;-85
2021/12/15 05:59:52;;;;;;;5.83;4.10;;;10.10;99.90;;;;;;5038626;28;20211;-83
2021/12/15 06:02:18;;;;;;;5.67;4.10;;;10.10;99.90;;;;;;5038273;28;20632;-83
2021/12/15 06:04:45;;;;;;;9.17;4.70;;;10.10;99.90;;;;;;5037932;28;20434;-83
2021/12/15 06:07:10;;;;;;;6.00;3.67;;;10.10;99.90;;;;;;5037561;28;20219;-85
2021/12/15 06:09:36;;;;;;;6.50;4.40;;;10.10;99.90;;;;;;5036062;28;20419;-83
2021/12/15 06:12:03;;;;;;;6.83;4.67;;;10.00;99.90;;;;;;5037781;28;20192;-82
2021/12/15 06:14:30;;;;;;;9.00;4.07;;;10.00;99.90;;;;;;5037362;28;20204;-84
2021/12/15 06:17:03;;;;;;;7.03;3.97;;;10.00;99.90;;;;;;5041069;28;20520;-84
2021/12/15 06:19:29;;;;;;;6.90;4.50;;;10.00;99.90;;;;;;5040566;28;20457;-83
2021/12/15 06:21:55;;;;;;;6.00;3.40;;;10.00;99.90;;;;;;5040581;28;20797;-83
2021/12/15 06:24:21;;;;;;;6.43;4.10;;;10.00;99.90;;;;;;5039215;28;20435;-83
2021/12/15 06:26:46;;;;;;;5.50;3.50;;;10.00;99.90;;;;;;5040736;28;20418;-82
2021/12/15 06:29:12;;;;;;;6.57;3.93;;;10.10;99.90;;;;;;5039118;28;20188;-84
2021/12/15 06:31:38;;;;;;;5.90;3.90;;;10.10;99.90;;;;;;5038944;28;20267;-84
2021/12/15 06:34:05;;;;;;;4.73;3.60;;;10.10;99.90;;;;;;5040385;28;20188;-84
2021/12/15 06:36:32;;;;;;;6.00;3.90;;;10.10;99.90;;;;;;5038600;28;20513;-83
2021/12/15 06:38:57;;;;;;;6.83;4.27;;;10.10;99.90;;;;;;5039422;28;20424;-84
2021/12/15 06:41:23;;;;;;;8.20;4.40;;;10.10;99.90;;;;;;5039861;28;20419;-83
2021/12/15 06:43:55;;;;;;;6.93;5.10;;;10.10;99.90;;;;;;5037923;28;20187;-83
2021/12/15 06:57:31;;;;;;;5.60;3.70;;;10.00;99.90;;;;;;5038988;28;20481;-84
2021/12/15 06:59:57;;;;;;;7.77;4.50;;;10.00;99.90;;;;;;5038563;28;20453;-84
2021/12/15 07:02:23;;;;;;;5.00;3.20;;;10.00;99.90;;;;;;5036521;28;20431;-84
2021/12/15 07:04:48;;;;;;;11.00;4.53;;;10.00;99.90;;;;;;5038233;28;20887;-84
2021/12/15 07:07:14;;;;;;;6.10;3.97;;;10.00;99.90;;;;;;5036733;28;20427;-82
2021/12/15 07:09:40;;;;;;;6.07;3.43;;;10.00;99.90;;;;;;5035367;28;20263;-82
2021/12/15 07:12:09;;;;;;;5.50;3.13;;;10.00;99.90;;;;;;5033838;28;20732;-83
2021/12/15 07:14:35;;;;;;;7.37;4.50;;;10.10;99.90;;;;;;5036132;28;20443;-84
2021/12/15 07:17:08;;;;;;;5.77;3.30;;;10.10;99.90;;;;;;5036379;28;20531;-84
2021/12/15 07:19:51;;;;;;;4.67;3.30;;;10.10;99.90;;;;;;5035382;28;20188;-84
2021/12/15 07:22:30;;;;;;;9.50;4.40;;;10.00;99.90;;;;;;5034264;28;20414;-83
2021/12/15 07:24:57;;;;;;;6.20;3.73;;;9.90;99.90;;;;;;5033102;28;20443;-83
2021/12/15 07:27:23;;;;;;;6.07;3.97;;;9.90;99.90;;;;;;5033131;28;20425;-81
2021/12/15 07:29:48;;;;;;;8.27;4.60;;;9.90;99.90;;;;;;5032499;28;20508;-82
2021/12/15 07:32:14;;;;;;;5.07;3.73;;;9.90;99.90;;;;;;5034201;28;20484;-83
2021/12/15 07:34:39;;;;;;;7.20;4.23;;;9.90;99.90;;;;;;5032567;28;20626;-83
2021/12/15 07:37:05;;;;;;;11.57;4.63;;;9.90;99.90;;;;;;5032654;28;20208;-83
2021/12/15 07:39:31;;;;;;;6.70;4.13;;;10.00;99.90;;;;;;5032481;28;20749;-82
2021/12/15 07:42:06;;;;;;;6.27;3.60;;;9.90;99.90;;;;;;5032613;28;20180;-82
2021/12/15 07:44:34;;;;;;;7.10;4.00;;;10.00;99.90;;;;;;5032416;28;20242;-83
2021/12/15 07:47:00;;;;;;;7.27;4.07;;;10.00;99.90;;;;;;5033795;28;20415;-83
2021/12/15 07:49:28;;;;;;;6.23;4.20;;;9.90;99.90;;;;;;5033528;28;20459;-83
2021/12/15 07:52:00;;;;;;;9.30;5.40;;;10.00;99.90;;;;;;5033643;28;20473;-83
2021/12/15 07:54:32;;;;;;;7.10;3.17;;;9.90;99.90;;;;;;5033570;28;20439;-83
2021/12/15 07:56:59;;;;;;;7.40;4.30;;;10.00;99.90;;;;;;5033323;28;20451;-82
2021/12/15 07:59:25;;;;;;;7.80;4.37;;;10.00;99.90;;;;;;5033414;28;20423;-83
2021/12/15 08:01:51;;;;;;;7.67;4.80;;;10.00;99.90;;;;;;5033418;28;20830;-82
2021/12/15 08:04:18;;;;;;;7.77;4.40;;;10.00;99.90;;;;;;5032111;28;20431;-83
2021/12/15 08:06:46;;;;;;;7.10;4.17;;;10.00;99.90;;;;;;5033281;28;20426;-83
2021/12/15 08:09:12;;;;;;;10.13;5.40;;;10.00;99.90;;;;;;5033208;28;20414;-83
2021/12/15 08:11:38;;;;;;;6.47;4.20;;;10.10;99.90;;;;;;5031923;28;20423;-83
2021/12/15 08:14:04;;;;;;;5.30;3.90;;;10.10;99.90;;;;;;5033121;28;20914;-83
2021/12/15 08:16:29;;;;;;;6.33;4.07;;;10.20;99.90;;;;;;5033135;28;20299;-83
2021/12/15 08:18:55;;;;;;;7.77;4.00;;;10.30;99.90;;;;;;5033098;28;20190;-83
2021/12/15 08:21:21;;;;;;;7.30;4.50;;;10.30;99.90;;;;;;5031706;28;20224;-82
2021/12/15 08:23:47;;;;;;;6.70;3.97;;;10.30;99.90;;;;;;5031753;28;20459;-83
2021/12/15 08:26:13;;;;;;;5.77;3.67;;;10.30;99.90;;;;;;5031570;28;20691;-83
2021/12/15 08:28:39;;;;;;;7.33;4.97;;;10.30;99.90;;;;;;5031668;28;20271;-83
2021/12/15 08:31:06;;;;;;;5.77;4.30;;;10.40;99.90;;;;;;5031453;28;20262;-82
2021/12/15 08:33:31;;;;;;;6.77;4.13;;;10.40;99.90;;;;;;5032684;28;20180;-83
2021/12/15 08:36:04;;;;;;;6.73;4.47;;;10.40;99.90;;;;;;5031437;28;20964;-83
2021/12/15 08:38:33;;;;;;;7.03;4.70;;;10.40;99.90;;;;;;5032211;28;20427;-82
2021/12/15 08:41:01;;;;;;;7.23;4.50;;;10.40;99.90;;;;;;5031370;28;20419;-83
2021/12/15 08:43:27;;;;;;;8.77;4.60;;;10.40;99.90;;;;;;5031458;28;20415;-84
2021/12/15 08:45:59;;;;;;;7.10;4.13;;;10.40;99.90;;;;;;5034086;28;20477;-82
2021/12/15 08:48:25;;;;;;;6.20;4.47;;;10.40;99.90;;;;;;5032617;28;20686;-83
2021/12/15 08:50:51;;;;;;;6.33;4.03;;;10.40;99.90;;;;;;5033648;28;20411;-83
2021/12/15 08:53:17;;;;;;;10.33;3.80;;;10.40;99.90;;;;;;5033941;28;20922;-84
2021/12/15 08:55:46;;;;;;;5.87;3.33;;;10.40;99.90;;;;;;5032330;28;20489;-83
2021/12/15 08:58:13;;;;;;;6.03;4.27;;;10.50;99.90;;;;;;5033861;28;20191;-83
2021/12/15 09:00:44;;;;;;;7.10;4.20;;;10.50;99.90;;;;;;5033638;28;20455;-83
2021/12/15 09:03:14;;;;;;;8.23;3.30;;;10.60;99.90;;;;;;5031841;28;20456;-84
2021/12/15 09:05:42;;;;;;;6.37;3.60;;;10.60;99.90;;;;;;5033223;28;20819;-83
2021/12/15 09:08:09;;;;;;;6.60;3.73;;;10.60;99.90;;;;;;5032079;28;20430;-84
2021/12/15 09:10:37;;;;;;;6.07;3.90;;;10.60;99.90;;;;;;5015288;28;20446;-81
2021/12/15 09:13:05;;;;;;;4.07;2.80;;;10.60;99.90;;;;;;5010369;28;20435;-80
2021/12/15 09:15:31;;;;;;;11.93;3.70;;;10.60;99.90;;;;;;5026873;28;20444;-82
2021/12/15 09:17:57;;;;;;;6.27;3.77;;;10.70;99.90;;;;;;5026661;28;20893;-82
2021/12/15 09:20:26;;;;;;;9.60;4.47;;;10.80;99.90;;;;;;5011486;28;20459;-81
2021/12/15 09:22:53;;;;;;;7.10;4.77;;;10.70;99.90;;;;;;5012309;28;20743;-82
2021/12/15 09:25:18;;;;;;;5.20;3.07;;;10.80;99.90;;;;;;5011864;28;20436;-84
2021/12/15 09:27:45;;;;;;;6.40;3.33;;;10.80;99.90;;;;;;5011051;28;20412;-83
2021/12/15 09:30:15;;;;;;;5.97;3.37;;;10.80;99.90;;;;;;5010353;28;20181;-84
2021/12/15 09:32:41;;;;;;;7.27;3.87;;;10.70;99.90;;;;;;5010906;28;20415;-84
2021/12/15 09:35:10;;;;;;;3.53;2.20;;;10.80;99.90;;;;;;5010811;28;20435;-84
2021/12/15 09:37:36;;;;;;;6.80;2.90;;;10.80;99.90;;;;;;5010893;28;20568;-84
2021/12/15 09:40:04;;;;;;;6.13;2.83;;;10.80;99.90;;;;;;5012057;28;20420;-84
2021/12/15 09:42:34;;;;;;;4.83;2.73;;;10.90;99.90;;;;;;5010063;28;20427;-84
2021/12/15 09:45:18;;;;;;;4.53;2.67;;;10.90;99.90;;;;;;5012170;28;20941;-84
2021/12/15 10:19:58;;;;;;;4.40;2.60;;;10.50;99.90;;;;;;5014663;28;20420;-84
2021/12/15 10:25:05;;;;;;;4.93;2.60;;;10.50;99.90;;;;;;5014705;28;20431;-82
2021/12/15 10:27:36;;;;;;;5.57;3.00;;;10.60;99.90;;;;;;5013777;28;20423;-83
2021/12/15 10:30:24;;;;;;;5.70;2.93;;;10.70;99.90;;;;;;5013077;28;20435;-83
2021/12/15 10:32:55;;;;;;;5.13;3.00;;;10.70;99.90;;;;;;5012961;28;20466;-83
2021/12/15 10:35:33;;;;;;;5.00;2.80;;;10.70;99.90;;;;;;5013230;28;20481;-83
2021/12/15 10:38:18;;;;;;;4.60;2.97;;;10.80;99.90;;;;;;5014621;28;20538;-82
2021/12/15 10:40:49;;;;;;;6.77;3.10;;;10.90;99.90;;;;;;5014068;28;20946;-83
2021/12/15 10:43:15;;;;;;;4.23;2.67;;;11.00;99.90;;;;;;5013100;28;20416;-84
2021/12/15 10:45:46;;;;;;;5.47;3.13;;;11.00;99.90;;;;;;5013781;28;20845;-82
2021/12/15 10:48:23;;;;;;;4.87;2.83;;;11.10;99.90;;;;;;5013455;28;20427;-82
2021/12/15 10:50:49;;;;;;;5.20;2.90;;;11.20;99.90;;;;;;5012750;28;20447;-82
2021/12/15 10:53:29;;;;;;;6.83;3.63;;;11.20;99.90;;;;;;5013417;28;20432;-83
2021/12/15 10:55:55;;;;;;;8.73;3.17;;;11.20;99.90;;;;;;5012395;28;20436;-82
2021/12/15 10:58:39;;;;;;;4.37;2.63;;;11.20;99.90;;;;;;5014267;28;20419;-83
2021/12/15 11:01:31;;;;;;;7.23;3.53;;;11.20;99.90;;;;;;5011652;28;20169;-83
2021/12/15 11:03:58;;;;;;;4.50;2.60;;;11.30;99.90;;;;;;5014213;28;20403;-84
2021/12/15 11:06:32;;;;;;;5.23;2.80;;;11.30;99.90;;;;;;5013987;28;20419;-83
2021/12/15 11:09:17;;;;;;;4.13;2.50;;;11.30;99.90;;;;;;5012762;28;20965;-83
2021/12/15 11:11:56;;;;;;;5.40;2.80;;;11.40;99.90;;;;;;5013462;28;20412;-83
2021/12/15 11:14:43;;;;;;;6.47;3.60;;;11.40;99.90;;;;;;5013871;28;20523;-83
2021/12/15 11:17:37;;;;;;;5.30;3.30;;;11.40;99.90;;;;;;5012452;28;20458;-84
2021/12/15 11:20:08;;;;;;;5.37;3.00;;;11.50;99.90;;;;;;5004612;28;20427;-84
2021/12/15 11:22:44;;;;;;;6.30;2.73;;;11.50;99.90;;;;;;5012305;28;20519;-83
2021/12/15 11:25:32;;;;;;;5.60;3.20;;;11.50;99.90;;;;;;5013472;28;20471;-83
2021/12/15 11:28:00;;;;;;;9.17;3.17;;;11.60;99.90;;;;;;5011984;28;20428;-83
2021/12/15 11:30:33;;;;;;;4.10;3.03;;;11.50;99.90;;;;;;5011965;28;20927;-83
2021/12/15 11:33:03;;;;;;;5.67;3.40;;;11.50;99.90;;;;;;5011847;28;20451;-83
2021/12/15 11:35:36;;;;;;;5.70;3.60;;;11.60;99.90;;;;;;5013552;28;20447;-83
2021/12/15 11:38:16;;;;;;;4.73;3.50;;;11.50;99.90;;;;;;5013169;28;20460;-82
2021/12/15 11:40:46;;;;;;;7.70;3.67;;;11.40;99.90;;;;;;5011718;28;20412;-84
2021/12/15 11:43:26;;;;;;;4.43;3.20;;;11.40;99.90;;;;;;5013024;28;20459;-83
2021/12/15 11:45:52;;;;;;;6.23;3.60;;;11.40;99.90;;;;;;5012914;28;20506;-84
2021/12/15 11:48:32;;;;;;;6.23;3.50;;;11.40;99.90;;;;;;5011987;28;20851;-84
2021/12/15 11:51:02;;;;;;;5.00;3.27;;;11.40;99.90;;;;;;5011448;28;20443;-83
2021/12/15 11:53:44;;;;;;;6.03;3.60;;;11.40;99.90;;;;;;5013182;28;20404;-83
2021/12/15 11:56:10;;;;;;;6.53;3.27;;;11.40;99.90;;;;;;5013003;28;20499;-82
2021/12/15 11:58:36;;;;;;;8.43;3.90;;;11.40;99.90;;;;;;5013338;28;20419;-82
2021/12/15 12:01:02;;;;;;;9.10;3.90;;;11.40;99.90;;;;;;5013029;28;20501;-82
2021/12/15 12:03:27;;;;;;;4.93;3.50;;;11.40;99.90;;;;;;5011917;28;20176;-82
2021/12/15 12:05:53;;;;;;;5.27;3.77;;;11.40;99.90;;;;;;5011943;28;20295;-83
2021/12/15 12:08:19;;;;;;;5.73;3.57;;;11.40;99.90;;;;;;5020191;28;20590;-83
2021/12/15 12:10:50;;;;;;;7.80;3.80;;;11.50;99.90;;;;;;5018551;28;20191;-83
2021/12/15 12:13:25;;;;;;;5.60;4.07;;;11.60;99.90;;;;;;5019720;28;20191;-83
2021/12/15 12:15:54;;;;;;;6.00;3.70;;;11.60;99.90;;;;;;5019423;28;20454;-83
2021/12/15 12:18:24;;;;;;;5.43;3.80;;;11.50;99.90;;;;;;5020440;28;20460;-83
2021/12/15 12:20:56;;;;;;;7.03;3.70;;;11.50;99.90;;;;;;5018785;28;20428;-83
2021/12/15 12:23:28;;;;;;;5.93;3.90;;;11.40;99.90;;;;;;5017172;28;20460;-83
2021/12/15 12:25:56;;;;;;;5.93;3.60;;;11.40;99.90;;;;;;5019969;28;20452;-84
2021/12/15 12:28:28;;;;;;;5.87;3.67;;;11.30;99.90;;;;;;5015507;28;20440;-84
2021/12/15 12:30:58;;;;;;;5.33;4.03;;;11.30;99.90;;;;;;5018119;28;20435;-84
2021/12/15 12:33:30;;;;;;;5.40;3.50;;;11.30;99.90;;;;;;5132948;27;20537;-78
2021/12/15 12:36:06;;;;;;;5.43;3.30;;;11.40;99.90;;;;;;5100480;28;20420;-79
2021/12/15 12:38:36;;;;;;;6.10;3.47;;;11.40;99.90;;;;;;5099488;28;20774;-79
2021/12/15 12:41:14;;;;;;;5.47;3.77;;;11.40;99.90;;;;;;5099367;28;20415;-79
2021/12/15 12:43:51;;;;;;;5.50;3.57;;;11.30;99.90;;;;;;5099010;28;20422;-79
2021/12/15 12:46:28;;;;;;;6.20;4.17;;;11.40;99.90;;;;;;5099189;28;20413;-79
2021/12/15 12:49:53;;;;;;;8.30;4.90;;;11.40;99.90;;;;;;5100646;28;20414;-78
2021/12/15 13:01:18;;;;;;;9.00;6.43;;;11.50;99.90;;;;;;5099102;28;20416;-79
2021/12/15 13:03:57;;;;;;;7.93;5.77;;;11.60;99.90;;;;;;5100118;28;20429;-79
2021/12/15 13:06:26;;;;;;;11.93;6.57;;;11.60;99.90;;;;;;5099611;28;20412;-79
2021/12/15 13:09:03;;;;;;;8.63;6.50;;;11.60;99.90;;;;;;5101966;28;20411;-79
2021/12/15 13:11:39;;;;;;;8.00;6.20;;;11.60;99.90;;;;;;5100276;28;20547;-79
2021/12/15 13:14:15;;;;;;;10.80;7.67;;;11.60;99.90;;;;;;5100202;28;20918;-78
2021/12/15 13:16:44;;;;;;;11.23;7.67;;;11.70;99.90;;;;;;5100286;28;20415;-78
2021/12/15 13:19:33;;;;;;;10.00;7.40;;;11.60;99.90;;;;;;5100331;28;20419;-79
2021/12/15 13:30:38;;;;;;;10.70;7.83;;;11.50;99.90;;;;;;5116346;28;20438;-79
2021/12/15 13:33:06;;;;;;;11.10;7.40;;;11.40;99.90;;;;;;5097800;28;20467;-79
2021/12/15 13:35:39;;;;;;;9.47;7.27;;;11.40;99.90;;;;;;5097304;28;20922;-79
2021/12/15 13:38:06;;;;;;;11.30;7.13;;;11.30;99.90;;;;;;5097789;28;20510;-79
2021/12/15 13:41:14;;;;;;;10.50;7.23;;;11.30;99.90;;;;;;5097572;28;20412;-79
2021/12/15 13:44:11;;;;;;;10.17;7.80;;;11.30;99.90;;;;;;5070207;28;20416;-79
2021/12/15 13:46:47;;;;;;;11.10;7.30;;;11.30;99.90;;;;;;5083903;28;20554;-80
2021/12/15 13:49:27;;;;;;;9.03;7.50;;;11.30;99.90;;;;;;5083345;28;20427;-79
2021/12/15 13:52:18;;;;;;;11.93;6.97;;;11.30;99.90;;;;;;5083838;28;20496;-80
2021/12/15 13:54:49;;;;;;;14.10;8.50;;;11.30;99.90;;;;;;5083383;28;20419;-79
2021/12/15 13:57:15;;;;;;;11.70;8.10;;;11.30;99.90;;;;;;5082748;28;20412;-79
2021/12/15 13:59:53;;;;;;;18.07;9.77;;;11.20;99.90;;;;;;5082409;28;20412;-79
2021/12/15 14:02:32;;;;;;;12.73;7.97;;;11.10;99.90;;;;;;5085942;28;20206;-80
2021/12/15 14:05:04;;;;;;;14.20;8.87;;;11.10;99.90;;;;;;5086547;28;20417;-79
2021/12/15 14:07:44;;;;;;;17.27;9.73;;;11.00;99.90;;;;;;5086850;28;20473;-79
2021/12/15 14:10:10;;;;;;;17.33;11.27;;;11.00;99.90;;;;;;5086451;28;20454;-79
2021/12/15 14:12:45;;;;;;;16.03;10.20;;;11.00;99.90;;;;;;5086385;28;20486;-79
2021/12/15 14:15:36;;;;;;;16.67;10.03;;;11.00;99.90;;;;;;5085644;28;20241;-79
2021/12/15 14:18:17;;;;;;;14.67;9.80;;;11.00;99.90;;;;;;5084666;28;20452;-79
2021/12/15 14:20:51;;;;;;;13.90;9.37;;;11.10;99.90;;;;;;5082991;28;20416;-79
2021/12/15 14:23:27;;;;;;;16.50;10.33;;;11.00;99.90;;;;;;5082902;28;20862;-80
2021/12/15 14:25:54;;;;;;;18.70;10.47;;;11.00;99.90;;;;;;5083402;28;20440;-79
2021/12/15 14:28:46;;;;;;;17.37;10.00;;;11.10;99.90;;;;;;5083706;28;20430;-80
2021/12/15 14:31:17;;;;;;;16.63;10.50;;;11.10;99.90;;;;;;5068468;28;20408;-79
2021/12/15 14:33:55;;;;;;;14.37;9.97;;;11.20;99.90;;;;;;5081386;28;20452;-79
2021/12/15 14:36:26;;;;;;;14.67;9.90;;;11.20;99.90;;;;;;5081047;28;20421;-79
2021/12/15 14:38:58;;;;;;;13.37;9.23;;;11.20;99.90;;;;;;5080449;28;20446;-79
2021/12/15 14:41:31;;;;;;;15.57;10.70;;;11.30;99.90;;;;;;5078340;28;20455;-79
2021/12/15 14:44:05;;;;;;;15.70;9.80;;;11.30;99.90;;;;;;5078986;28;20427;-79
2021/12/15 14:46:38;;;;;;;14.13;10.30;;;11.20;99.90;;;;;;5078773;28;20439;-79